createdAt,value
2023-05-21T00:03:38.025Z,100076.98
2023-05-21T00:07:35.964Z,100072.41
2023-05-21T00:11:34.016Z,100074.79
2023-05-21T00:15:32.032Z,100073.73
2023-05-21T00:19:30.005Z,100069.45
2023-05-21T00:23:27.992Z,100074.84
2023-05-21T00:27:25.942Z,100071.44
2023-05-21T00:31:23.994Z,100071.48
2023-05-21T00:35:21.964Z,100069.59
2023-05-21T00:39:19.921Z,100071.10
2023-05-21T00:43:17.897Z,100073.45
2023-05-21T00:47:16.908Z,100074.34
2023-05-21T00:51:14.993Z,100077.25
2023-05-21T00:55:12.910Z,100074.98
2023-05-21T00:59:11.922Z,100070.54
2023-05-21T01:03:10.001Z,100071.66
2023-05-21T01:07:08.875Z,100073.61
2023-05-21T01:11:07.871Z,100073.70
2023-05-21T01:15:06.938Z,100069.02
2023-05-21T01:19:04.948Z,100068.16
2023-05-21T01:23:08.878Z,100062.96
2023-05-21T01:27:06.829Z,100063.59
2023-05-21T01:31:04.856Z,100064.94
2023-05-21T01:35:34.991Z,100054.85
2023-05-21T01:39:42.848Z,100056.55
2023-05-21T01:43:43.843Z,100057.48
2023-05-21T01:47:45.848Z,100051.15
2023-05-21T01:51:43.826Z,100051.91
2023-05-21T01:55:42.018Z,100047.58
2023-05-21T01:59:39.809Z,100048.44
2023-05-21T02:03:39.873Z,100044.95
2023-05-21T02:07:38.802Z,100048.96
2023-05-21T02:11:36.825Z,100047.14
2023-05-21T02:15:35.228Z,100043.51
2023-05-21T02:19:34.014Z,100042.90
2023-05-21T02:23:31.793Z,100042.00
2023-05-21T02:27:29.846Z,100039.89
2023-05-21T02:31:27.769Z,100039.33
2023-05-21T02:35:27.865Z,100038.83
2023-05-21T02:39:25.761Z,100032.60
2023-05-21T02:43:23.794Z,100027.14
2023-05-21T02:47:21.744Z,100028.33
2023-05-21T02:51:19.924Z,100029.72
2023-05-21T02:55:17.824Z,100027.61
2023-05-21T02:59:15.838Z,100027.26
2023-05-21T03:03:13.809Z,100026.50
2023-05-21T03:07:11.771Z,100027.19
2023-05-21T03:11:09.786Z,100031.15
2023-05-21T03:15:07.783Z,100026.48
2023-05-21T03:19:05.839Z,100026.02
2023-05-21T03:23:03.746Z,100024.05
2023-05-21T03:27:01.714Z,100028.78
2023-05-21T03:30:59.738Z,100023.97
2023-05-21T03:35:14.711Z,100022.11
2023-05-21T03:39:12.687Z,100023.95
2023-05-21T03:43:10.703Z,100030.07
2023-05-21T03:47:08.741Z,100026.55
2023-05-21T03:51:06.688Z,100027.48
2023-05-21T03:55:04.722Z,100028.73
2023-05-21T03:59:22.687Z,100030.79
2023-05-21T04:03:20.988Z,100036.14
2023-05-21T04:07:21.680Z,100033.92
2023-05-21T04:11:19.693Z,100031.73
2023-05-21T04:15:17.664Z,100030.39
2023-05-21T04:19:15.778Z,100029.54
2023-05-21T04:23:13.672Z,100024.77
2023-05-21T04:27:11.693Z,100028.64
2023-05-21T04:31:09.725Z,100028.53
2023-05-21T04:35:07.738Z,100030.48
2023-05-21T04:39:05.662Z,100023.16
2023-05-21T04:43:03.674Z,100028.10
2023-05-21T04:47:01.736Z,100023.16
2023-05-21T04:51:01.632Z,100025.52
2023-05-21T04:55:00.692Z,100023.90
2023-05-21T04:58:58.765Z,100024.23
2023-05-21T05:02:57.753Z,100024.73
2023-05-21T05:06:55.803Z,100017.86
2023-05-21T05:10:53.618Z,100015.77
2023-05-21T05:14:51.642Z,100013.75
2023-05-21T05:18:49.645Z,100012.65
2023-05-21T05:22:47.623Z,100015.11
2023-05-21T05:26:45.647Z,100009.29
2023-05-21T05:30:43.685Z,100013.69
2023-05-21T05:34:47.606Z,100014.77
2023-05-21T05:38:45.616Z,100013.58
2023-05-21T05:42:43.588Z,100013.23
2023-05-21T05:46:41.636Z,100006.48
2023-05-21T05:50:39.633Z,100006.17
2023-05-21T05:54:38.615Z,100008.58
2023-05-21T05:58:29.678Z,100008.84
2023-05-21T06:02:33.696Z,100011.54
2023-05-21T06:06:31.615Z,100009.52
2023-05-21T06:10:29.671Z,100013.06
2023-05-21T06:14:27.563Z,100012.55
2023-05-21T06:18:25.650Z,100013.17
2023-05-21T06:22:25.465Z,100008.05
2023-05-21T06:26:25.557Z,100001.61
2023-05-21T06:30:23.810Z,100000.96
2023-05-21T06:34:21.548Z,99998.20
2023-05-21T06:38:19.555Z,99994.55
2023-05-21T06:42:17.528Z,99992.49
2023-05-21T06:46:37.598Z,99995.46
2023-05-21T06:50:35.577Z,99990.77
2023-05-21T06:54:33.534Z,99988.73
2023-05-21T06:58:31.557Z,99985.17
2023-05-21T07:02:29.762Z,99988.48
2023-05-21T07:06:28.538Z,99992.71
2023-05-21T07:10:26.566Z,99990.02
2023-05-21T07:14:24.532Z,99991.53
2023-05-21T07:18:23.575Z,99997.23
2023-05-21T07:22:25.982Z,99995.29
2023-05-21T07:26:25.500Z,99995.02
2023-05-21T07:30:24.629Z,99992.05
2023-05-21T07:34:22.495Z,99989.61
2023-05-21T07:38:20.512Z,99987.76
2023-05-21T07:42:18.489Z,99983.52
2023-05-21T07:46:16.598Z,99980.39
2023-05-21T07:50:16.511Z,99981.42
2023-05-21T07:54:14.505Z,99985.05
2023-05-21T07:58:12.469Z,99987.91
2023-05-21T08:02:10.506Z,99988.45
2023-05-21T08:06:08.468Z,99988.19
2023-05-21T08:10:06.455Z,99985.75
2023-05-21T08:14:04.515Z,99985.23
2023-05-21T08:18:02.550Z,99982.55
2023-05-21T08:22:00.458Z,99979.09
2023-05-21T08:26:02.476Z,99979.54
2023-05-21T08:30:00.430Z,99969.05
2023-05-21T08:34:09.556Z,99967.86
2023-05-21T08:38:05.600Z,99965.81
2023-05-21T08:42:40.445Z,99972.50
2023-05-21T08:46:47.439Z,99978.64
2023-05-21T08:50:46.495Z,99973.60
2023-05-21T08:54:50.462Z,99971.64
2023-05-21T08:58:49.508Z,99964.67
2023-05-21T09:02:53.427Z,99966.16
2023-05-21T09:06:51.450Z,99964.86
2023-05-21T09:11:12.379Z,99966.86
2023-05-21T09:15:16.414Z,99960.84
2023-05-21T09:19:14.457Z,99965.13
2023-05-21T09:23:19.495Z,99963.93
2023-05-21T09:27:21.387Z,99960.09
2023-05-21T09:31:32.443Z,99955.89
2023-05-21T09:35:30.366Z,99959.89
2023-05-21T09:39:42.465Z,99956.23
2023-05-21T09:43:40.364Z,99959.76
2023-05-21T09:47:40.398Z,99952.97
2023-05-21T09:51:38.405Z,99957.84
2023-05-21T09:55:41.389Z,99954.73
2023-05-21T09:59:49.367Z,99952.91
2023-05-21T10:03:51.437Z,99947.55
2023-05-21T10:07:50.345Z,99955.84
2023-05-21T10:11:49.378Z,99955.71
2023-05-21T10:15:53.346Z,99947.94
2023-05-21T10:19:52.341Z,99945.56
2023-05-21T10:23:52.366Z,99948.28
2023-05-21T10:27:51.390Z,99939.11
2023-05-21T10:31:50.413Z,99940.76
2023-05-21T10:35:48.356Z,99933.35
2023-05-21T10:39:47.394Z,99934.06
2023-05-21T10:43:57.388Z,99932.90
2023-05-21T10:48:14.357Z,99932.00
2023-05-21T10:52:17.477Z,99924.96
2023-05-21T10:56:32.332Z,99926.58
2023-05-21T11:00:32.370Z,99928.85
2023-05-21T11:04:30.356Z,99927.83
2023-05-21T11:08:42.338Z,99926.16
2023-05-21T11:12:40.345Z,99921.45
2023-05-21T11:16:38.370Z,99918.83
2023-05-21T11:20:36.536Z,99912.80
2023-05-21T11:24:35.299Z,99909.31
2023-05-21T11:28:47.279Z,99903.68
2023-05-21T11:32:45.362Z,99902.96
2023-05-21T11:36:43.289Z,99900.52
2023-05-21T11:40:41.297Z,99898.48
2023-05-21T11:44:58.278Z,99894.34
2023-05-21T11:48:59.378Z,99898.69
2023-05-21T11:52:57.273Z,99895.47
2023-05-21T11:56:55.271Z,99885.09
2023-05-21T12:00:54.234Z,99879.69
2023-05-21T12:04:52.314Z,99874.45
2023-05-21T12:08:50.268Z,99875.34
2023-05-21T12:12:55.652Z,99870.02
2023-05-21T12:16:55.334Z,99875.31
2023-05-21T12:20:53.322Z,99870.73
2023-05-21T12:24:52.217Z,99872.23
2023-05-21T12:28:50.351Z,99867.77
2023-05-21T12:32:49.338Z,99860.67
2023-05-21T12:36:47.229Z,99851.44
2023-05-21T12:40:52.249Z,99857.98
2023-05-21T12:44:50.269Z,99857.33
2023-05-21T12:48:27.837Z,99853.30
2023-05-21T12:51:51.760Z,99847.84
2023-05-21T12:55:16.193Z,99856.02
2023-05-21T12:58:41.228Z,99848.25
2023-05-21T13:02:05.517Z,99854.77
2023-05-21T13:05:29.612Z,99846.10
2023-05-21T13:08:55.826Z,99845.23
2023-05-21T13:12:23.774Z,99848.73
2023-05-21T13:15:49.585Z,99840.52
2023-05-21T13:19:15.458Z,99838.66
2023-05-21T13:22:42.683Z,99838.34
2023-05-21T13:26:06.762Z,99839.27
2023-05-21T13:29:30.820Z,99835.65
2023-05-21T13:32:55.021Z,99835.35
2023-05-21T13:36:19.223Z,99832.89
2023-05-21T13:39:43.594Z,99832.95
2023-05-21T13:43:07.461Z,99827.75
2023-05-21T13:46:31.812Z,99827.30
2023-05-21T13:49:55.903Z,99825.34
2023-05-21T13:53:19.837Z,99827.19
2023-05-21T13:56:43.716Z,99830.39
2023-05-21T14:00:09.339Z,99828.19
2023-05-21T14:03:34.454Z,99827.17
2023-05-21T14:06:58.937Z,99826.41
2023-05-21T14:10:23.351Z,99824.22
2023-05-21T14:13:48.307Z,99823.34
2023-05-21T14:17:12.340Z,99817.30
2023-05-21T14:20:36.688Z,99820.28
2023-05-21T14:24:00.585Z,99814.05
2023-05-21T14:27:24.409Z,99808.49
2023-05-21T14:30:48.511Z,99810.27
2023-05-21T14:34:12.382Z,99807.39
2023-05-21T14:37:36.198Z,99810.94
2023-05-21T14:41:00.178Z,99808.21
2023-05-21T14:44:24.066Z,99808.65
2023-05-21T14:47:49.115Z,99804.70
2023-05-21T14:51:13.561Z,99803.18
2023-05-21T14:54:38.220Z,99798.74
2023-05-21T14:58:03.290Z,99793.05
2023-05-21T15:01:32.267Z,99789.02
2023-05-21T15:04:56.904Z,99778.98
2023-05-21T15:08:20.832Z,99782.80
2023-05-21T15:11:46.187Z,99786.96
2023-05-21T15:15:10.630Z,99785.86
2023-05-21T15:18:35.128Z,99785.27
2023-05-21T15:21:59.017Z,99782.33
2023-05-21T15:25:22.941Z,99775.81
2023-05-21T15:28:47.288Z,99773.34
2023-05-21T15:32:11.209Z,99776.88
2023-05-21T15:35:36.842Z,99775.23
2023-05-21T15:39:03.575Z,99781.70
2023-05-21T15:42:31.322Z,99777.70
2023-05-21T15:45:55.267Z,99777.56
2023-05-21T15:49:19.190Z,99777.25
2023-05-21T15:52:43.284Z,99772.77
2023-05-21T15:56:09.148Z,99770.13
2023-05-21T15:59:32.986Z,99772.18
2023-05-21T16:02:57.018Z,99767.15
2023-05-21T16:06:21.050Z,99768.52
2023-05-21T16:09:45.203Z,99764.62
2023-05-21T16:13:09.223Z,99764.38
2023-05-21T16:16:33.210Z,99761.14
2023-05-21T16:19:57.411Z,99761.02
2023-05-21T16:23:21.461Z,99759.73
2023-05-21T16:26:46.125Z,99761.04
2023-05-21T16:30:11.953Z,99762.84
2023-05-21T16:33:36.106Z,99763.02
2023-05-21T16:37:00.004Z,99763.73
2023-05-21T16:40:24.018Z,99764.01
2023-05-21T16:43:48.072Z,99763.53
2023-05-21T16:47:11.956Z,99764.09
2023-05-21T16:50:36.877Z,99765.63
2023-05-21T16:54:02.883Z,99771.90
2023-05-21T16:57:26.736Z,99771.99
2023-05-21T17:00:50.758Z,99768.90
2023-05-21T17:04:14.953Z,99769.05
2023-05-21T17:07:39.372Z,99765.25
2023-05-21T17:11:03.494Z,99768.34
2023-05-21T17:14:34.488Z,99765.30
2023-05-21T17:17:59.182Z,99764.48
2023-05-21T17:21:23.128Z,99768.23
2023-05-21T17:24:47.094Z,99769.52
2023-05-21T17:28:11.343Z,99764.17
2023-05-21T17:31:35.631Z,99769.06
2023-05-21T17:34:59.562Z,99774.18
2023-05-21T17:38:23.783Z,99770.26
2023-05-21T17:41:57.171Z,99767.09
2023-05-21T17:45:21.423Z,99766.48
2023-05-21T17:48:46.323Z,99763.45
2023-05-21T17:52:10.367Z,99767.82
2023-05-21T17:55:34.579Z,99766.60
2023-05-21T17:58:58.890Z,99767.56
2023-05-21T18:02:23.636Z,99766.07
2023-05-21T18:05:47.589Z,99772.32
2023-05-21T18:09:14.414Z,99775.31
2023-05-21T18:12:38.660Z,99769.83
2023-05-21T18:16:02.490Z,99772.27
2023-05-21T18:19:27.009Z,99772.80
2023-05-21T18:22:51.026Z,99768.80
2023-05-21T18:26:16.832Z,99771.84
2023-05-21T18:29:40.755Z,99773.95
2023-05-21T18:33:04.835Z,99773.33
2023-05-21T18:36:29.132Z,99774.59
2023-05-21T18:39:53.002Z,99771.89
2023-05-21T18:43:17.846Z,99773.65
2023-05-21T18:46:42.384Z,99775.20
2023-05-21T18:50:15.874Z,99777.11
2023-05-21T18:53:40.564Z,99775.38
2023-05-21T18:57:04.515Z,99778.06
2023-05-21T19:00:28.860Z,99777.20
2023-05-21T19:03:53.114Z,99773.09
2023-05-21T19:07:17.165Z,99777.08
2023-05-21T19:10:41.353Z,99778.88
2023-05-21T19:14:05.835Z,99784.43
2023-05-21T19:17:29.895Z,99783.59
2023-05-21T19:20:53.770Z,99785.30
2023-05-21T19:24:17.676Z,99782.40
2023-05-21T19:27:41.563Z,99783.42
2023-05-21T19:31:05.597Z,99782.89
2023-05-21T19:34:29.610Z,99782.05
2023-05-21T19:37:54.655Z,99781.36
2023-05-21T19:41:20.099Z,99781.21
2023-05-21T19:44:44.125Z,99778.23
2023-05-21T19:48:08.353Z,99775.30
2023-05-21T19:51:32.676Z,99776.35
2023-05-21T19:55:04.458Z,99775.21
2023-05-21T19:58:30.628Z,99773.59
2023-05-21T20:01:54.976Z,99770.52
2023-05-21T20:05:20.136Z,99766.98
2023-05-21T20:08:44.358Z,99762.86
2023-05-21T20:12:09.802Z,99770.15
2023-05-21T20:15:34.728Z,99769.27
2023-05-21T20:19:01.780Z,99767.42
2023-05-21T20:22:26.005Z,99773.02
2023-05-21T20:25:50.494Z,99771.39
2023-05-21T20:29:14.742Z,99776.44
2023-05-21T20:32:38.734Z,99779.33
2023-05-21T20:36:04.278Z,99781.59
2023-05-21T20:39:29.600Z,99783.72
2023-05-21T20:42:54.262Z,99781.08
2023-05-21T20:46:19.017Z,99780.21
2023-05-21T20:49:43.939Z,99783.30
2023-05-21T20:53:07.905Z,99786.73
2023-05-21T20:59:59.189Z,99789.52
2023-05-21T21:03:23.803Z,99784.05
2023-05-21T21:06:48.418Z,99784.90
2023-05-21T21:10:12.736Z,99784.95
2023-05-21T21:13:37.414Z,99787.08
2023-05-21T21:17:01.860Z,99787.04
2023-05-21T21:20:26.607Z,99786.60
2023-05-21T21:23:51.197Z,99789.56
2023-05-21T21:27:15.359Z,99790.94
2023-05-21T21:30:41.340Z,99790.61
2023-05-21T21:34:05.551Z,99788.11
2023-05-21T21:37:29.912Z,99791.33
2023-05-21T21:40:54.586Z,99794.77
2023-05-21T21:44:18.885Z,99797.13
2023-05-21T21:47:42.930Z,99797.58
2023-05-21T21:51:08.322Z,99798.48
2023-05-21T21:54:32.443Z,99798.18
2023-05-21T21:57:56.887Z,99802.52
2023-05-21T22:01:21.097Z,99798.34
2023-05-21T22:04:46.696Z,99797.77
2023-05-21T22:08:11.184Z,99798.02
2023-05-21T22:11:35.305Z,99800.03
2023-05-21T22:15:04.590Z,99796.85
2023-05-21T22:18:40.331Z,99796.02
2023-05-21T22:22:25.698Z,99796.16
2023-05-21T22:26:24.740Z,99796.07
2023-05-21T22:30:22.693Z,99792.36
2023-05-21T22:34:20.711Z,99792.95
2023-05-21T22:38:18.648Z,99795.45
2023-05-21T22:42:16.705Z,99791.09
2023-05-21T22:46:14.706Z,99791.47
2023-05-21T22:50:12.677Z,99791.73
2023-05-21T22:54:10.666Z,99790.11
2023-05-21T22:58:08.672Z,99795.35
2023-05-21T23:02:06.688Z,99792.70
2023-05-21T23:06:04.667Z,99788.50
2023-05-21T23:10:02.632Z,99786.02
2023-05-21T23:14:00.659Z,99782.23
2023-05-21T23:17:58.611Z,99783.88
2023-05-21T23:21:57.694Z,99780.55
2023-05-21T23:25:55.638Z,99776.91
2023-05-21T23:29:53.635Z,99772.36
2023-05-21T23:33:51.638Z,99769.58
2023-05-21T23:37:49.633Z,99766.53
2023-05-21T23:41:47.584Z,99763.20
2023-05-21T23:45:45.720Z,99763.08
2023-05-21T23:49:43.569Z,99759.52
2023-05-21T23:53:41.602Z,99760.98
2023-05-21T23:57:39.611Z,99758.36
